< < Back
Terminal Aerodrome Forecast


Current Version              Previous Versions:   1  2  3  4  5  6  7  8  9  

Terminal Aerodrome Forecast

511
FTUS42 KJAX 291739
TAFGNV
TAF
KGNV 291739Z 2918/3018 24006KT P6SM SCT050
     FM292200 24008KT P6SM VCTS SCT050CB BKN250
     FM300100 21005KT P6SM SCT050 SCT150 BKN250
     FM300400 00000KT P6SM SCT250
     FM301400 31004KT P6SM FEW030=



Latest METAR

651
SAUS70 KWBC 301300 RRK
MTRGNV
METAR KGNV 301253Z 32005KT 10SM BKN026 28/24 A3007 RMK AO2 SLP180
T02830239


USA.gov is the U.S. government's official web portal to all federal, state and local government web resources and services.